Anchorage, AK (99509)

9:51 PM AKDT on March 27, 2015 (GMT -0800)
Waldron Drive | | Change Station
CLOSE
Current Station
Personal Weather Station
Location: Anchorage, AK
Elevation: 154 ft
Nearby Weather Stations

Elev 154 ft 61.17 °N, 149.85 °W | Updated 8 seconds ago

Partly Cloudy
Partly Cloudy
38.8 °F
Feels Like 39 °F
N
0.0
Wind Variable Wind from SSW
Gusts 0.0 mph

Today
High -- | Low -- °F
--% Chance of Precip.
Yesterday
High -- | Low -- °F
Precip. -- in
7:38 AM 8:32 PM
First Quarter, 59% visible
Pressure 29.59 in
Visibility 10.0 miles
Clouds Few 7500 ft
Windchill 39 °F
Dew Point 26 °F
Humidity 60%
Rainfall 0.00 in
Snow Depth Not available.
UV 0 out of 12
Pollen Not available.
Air Quality Not available.
Flu Activity Not available.
METAR PAMR 280453Z 00000KT 10SM FEW075 07/M03 A2958 RMK AO2 SLP018 T00671028

More Conditions Fewer Conditions

Pressure 29.59 in
Visibility 10.0 miles
Clouds Few 7500 ft
Windchill 39 °F
Dew Point 26 °F
Humidity 60%
Rainfall 0.00 in
Snow Depth Not available.
UV 0 out of 12
Pollen Not available.
Air Quality Not available.
Flu Activity Not available.
METAR PAMR 280453Z 00000KT 10SM FEW075 07/M03 A2958 RMK AO2 SLP018 T00671028

More Conditions Fewer Conditions

10-Day Weather Forecast

Almanac

Astronomy

Mar. 27, 2015 Rise Set
Actual Time
Civil Twilight
Nautical Twilight
Astronomical Twilight
Moon
Length of Visible Light
Length of Day
Tomorrow will be .
, % of the Moon is Illuminated

Today's Extremes

State Highs State Lows

Community

WunderPhotos

Upload Photos

1,808,934 photos uploaded!

WunderBlogs® & News

Nearby

Air Quality

  Air Quality AQ Index Pollutant
Not available.

Snow Depth

Station Depth Elevation

Earthquake Activity

City Distance Mag. Time & Date
Minimum magnitude displayed is 2.5.

Coastal Water Temperatures

Place Temperature

Stations

Nearby Weather Stations

Station Location Temp. Windchill Dew Point Humidity Wind Precip. Elev Updated Type